sensor_id;sensor_type;location;lat;lon;timestamp;temperature;humidity
8858;DHT22;4465;50.904;4.696;2023-02-26T00:00:58;0.20;99.90
8858;DHT22;4465;50.904;4.696;2023-02-26T00:03:23;0.30;99.90
8858;DHT22;4465;50.904;4.696;2023-02-26T00:05:49;0.20;99.90
8858;DHT22;4465;50.904;4.696;2023-02-26T00:08:15;0.20;99.90
8858;DHT22;4465;50.904;4.696;2023-02-26T00:10:41;0.30;99.90
8858;DHT22;4465;50.904;4.696;2023-02-26T00:13:10;0.20;99.90
8858;DHT22;4465;50.904;4.696;2023-02-26T00:15:36;0.20;99.90
8858;DHT22;4465;50.904;4.696;2023-02-26T00:18:05;0.20;99.90
8858;DHT22;4465;50.904;4.696;2023-02-26T00:20:32;0.20;99.90
8858;DHT22;4465;50.904;4.696;2023-02-26T00:23:00;0.10;99.90
8858;DHT22;4465;50.904;4.696;2023-02-26T00:25:26;0.10;99.90
8858;DHT22;4465;50.904;4.696;2023-02-26T00:27:54;0.10;99.90
8858;DHT22;4465;50.904;4.696;2023-02-26T00:30:20;0.10;99.90
8858;DHT22;4465;50.904;4.696;2023-02-26T00:32:46;0.10;99.90
8858;DHT22;4465;50.904;4.696;2023-02-26T00:35:14;0.10;99.90
8858;DHT22;4465;50.904;4.696;2023-02-26T00:42:41;0.00;99.90
8858;DHT22;4465;50.904;4.696;2023-02-26T00:45:08;0.00;99.90
8858;DHT22;4465;50.904;4.696;2023-02-26T00:50:18;0.00;99.90
8858;DHT22;4465;50.904;4.696;2023-02-26T00:55:10;0.10;99.90
8858;DHT22;4465;50.904;4.696;2023-02-26T00:57:36;-0.10;99.90
8858;DHT22;4465;50.904;4.696;2023-02-26T01:00:03;-0.10;99.90
8858;DHT22;4465;50.904;4.696;2023-02-26T01:02:34;-0.10;99.90
8858;DHT22;4465;50.904;4.696;2023-02-26T01:05:00;-0.10;99.90
8858;DHT22;4465;50.904;4.696;2023-02-26T01:07:26;-0.10;99.90
8858;DHT22;4465;50.904;4.696;2023-02-26T01:09:52;0.00;99.90
8858;DHT22;4465;50.904;4.696;2023-02-26T01:12:18;-0.20;99.90
8858;DHT22;4465;50.904;4.696;2023-02-26T01:14:44;-0.20;99.90
8858;DHT22;4465;50.904;4.696;2023-02-26T01:22:36;-0.20;99.90
8858;DHT22;4465;50.904;4.696;2023-02-26T01:25:11;-0.30;99.90
8858;DHT22;4465;50.904;4.696;2023-02-26T01:27:37;-0.30;99.90
8858;DHT22;4465;50.904;4.696;2023-02-26T01:30:04;-0.30;99.90
8858;DHT22;4465;50.904;4.696;2023-02-26T01:35:10;-0.30;99.90
8858;DHT22;4465;50.904;4.696;2023-02-26T01:38:00;-0.30;99.90
8858;DHT22;4465;50.904;4.696;2023-02-26T01:42:53;-0.40;99.90
8858;DHT22;4465;50.904;4.696;2023-02-26T01:45:24;-0.40;99.90
8858;DHT22;4465;50.904;4.696;2023-02-26T01:50:21;-0.40;99.90
8858;DHT22;4465;50.904;4.696;2023-02-26T01:55:20;-0.40;99.90
8858;DHT22;4465;50.904;4.696;2023-02-26T01:57:47;-0.40;99.90
8858;DHT22;4465;50.904;4.696;2023-02-26T02:00:13;-0.50;99.90
8858;DHT22;4465;50.904;4.696;2023-02-26T02:02:40;-0.40;99.90
8858;DHT22;4465;50.904;4.696;2023-02-26T02:05:20;-0.50;99.90
8858;DHT22;4465;50.904;4.696;2023-02-26T02:07:46;-0.40;99.90
8858;DHT22;4465;50.904;4.696;2023-02-26T02:10:12;-0.40;99.90
8858;DHT22;4465;50.904;4.696;2023-02-26T02:12:52;-0.40;99.90
8858;DHT22;4465;50.904;4.696;2023-02-26T02:15:29;-0.40;99.90
8858;DHT22;4465;50.904;4.696;2023-02-26T02:31:00;-0.30;99.90
8858;DHT22;4465;50.904;4.696;2023-02-26T02:33:50;-0.30;99.90
8858;DHT22;4465;50.904;4.696;2023-02-26T02:39:03;-0.20;99.90
8858;DHT22;4465;50.904;4.696;2023-02-26T02:41:34;-0.20;99.90
8858;DHT22;4465;50.904;4.696;2023-02-26T02:44:01;-0.20;99.90
8858;DHT22;4465;50.904;4.696;2023-02-26T02:46:31;-0.10;99.90
8858;DHT22;4465;50.904;4.696;2023-02-26T02:49:04;-0.10;99.90
8858;DHT22;4465;50.904;4.696;2023-02-26T02:51:35;-0.20;99.90
8858;DHT22;4465;50.904;4.696;2023-02-26T02:59:27;-0.20;99.90
8858;DHT22;4465;50.904;4.696;2023-02-26T03:02:05;-0.20;99.90
8858;DHT22;4465;50.904;4.696;2023-02-26T03:04:32;-0.20;99.90
8858;DHT22;4465;50.904;4.696;2023-02-26T03:07:02;-0.20;99.90
8858;DHT22;4465;50.904;4.696;2023-02-26T03:09:28;-0.20;99.90
8858;DHT22;4465;50.904;4.696;2023-02-26T03:11:53;-0.30;99.90
8858;DHT22;4465;50.904;4.696;2023-02-26T03:14:19;-0.30;99.90
8858;DHT22;4465;50.904;4.696;2023-02-26T03:16:58;-0.30;99.90
8858;DHT22;4465;50.904;4.696;2023-02-26T03:22:21;-0.30;99.90
8858;DHT22;4465;50.904;4.696;2023-02-26T03:30:05;-0.30;99.90
8858;DHT22;4465;50.904;4.696;2023-02-26T03:35:08;-0.30;99.90
8858;DHT22;4465;50.904;4.696;2023-02-26T03:37:38;-0.30;99.90
8858;DHT22;4465;50.904;4.696;2023-02-26T03:40:07;-0.30;99.90
8858;DHT22;4465;50.904;4.696;2023-02-26T03:42:35;-0.30;99.90
8858;DHT22;4465;50.904;4.696;2023-02-26T03:45:09;-0.30;99.90
8858;DHT22;4465;50.904;4.696;2023-02-26T03:47:37;-0.30;99.90
8858;DHT22;4465;50.904;4.696;2023-02-26T03:50:06;-0.30;99.90
8858;DHT22;4465;50.904;4.696;2023-02-26T03:52:35;-0.30;99.90
8858;DHT22;4465;50.904;4.696;2023-02-26T03:55:10;-0.30;99.90
8858;DHT22;4465;50.904;4.696;2023-02-26T03:57:39;-0.30;99.90
8858;DHT22;4465;50.904;4.696;2023-02-26T04:00:06;-0.30;99.90
8858;DHT22;4465;50.904;4.696;2023-02-26T04:02:34;-0.30;99.90
8858;DHT22;4465;50.904;4.696;2023-02-26T04:05:10;-0.30;99.90
8858;DHT22;4465;50.904;4.696;2023-02-26T04:07:37;-0.30;99.90
8858;DHT22;4465;50.904;4.696;2023-02-26T04:10:03;-0.30;99.90
8858;DHT22;4465;50.904;4.696;2023-02-26T04:12:31;-0.30;99.90
8858;DHT22;4465;50.904;4.696;2023-02-26T04:14:56;-0.30;99.90
8858;DHT22;4465;50.904;4.696;2023-02-26T04:17:23;-0.30;99.90
8858;DHT22;4465;50.904;4.696;2023-02-26T04:19:48;-0.30;99.90
8858;DHT22;4465;50.904;4.696;2023-02-26T04:22:14;-0.40;99.90
8858;DHT22;4465;50.904;4.696;2023-02-26T04:24:42;-0.40;99.90
8858;DHT22;4465;50.904;4.696;2023-02-26T04:27:08;-0.40;99.90
8858;DHT22;4465;50.904;4.696;2023-02-26T04:29:34;-0.40;99.90
8858;DHT22;4465;50.904;4.696;2023-02-26T04:32:00;-0.30;99.90
8858;DHT22;4465;50.904;4.696;2023-02-26T04:34:26;-0.30;99.90
8858;DHT22;4465;50.904;4.696;2023-02-26T04:36:52;-0.40;99.90
8858;DHT22;4465;50.904;4.696;2023-02-26T04:39:17;-0.30;99.90
8858;DHT22;4465;50.904;4.696;2023-02-26T04:41:45;-0.40;99.90
8858;DHT22;4465;50.904;4.696;2023-02-26T04:44:11;-0.50;99.90
8858;DHT22;4465;50.904;4.696;2023-02-26T04:46:37;-0.50;99.90
8858;DHT22;4465;50.904;4.696;2023-02-26T04:49:03;-0.50;99.90
8858;DHT22;4465;50.904;4.696;2023-02-26T04:51:29;-0.50;99.90
8858;DHT22;4465;50.904;4.696;2023-02-26T04:53:55;-0.50;99.90
8858;DHT22;4465;50.904;4.696;2023-02-26T04:56:21;-0.50;99.90
8858;DHT22;4465;50.904;4.696;2023-02-26T04:58:49;-0.50;99.90
8858;DHT22;4465;50.904;4.696;2023-02-26T05:01:14;-0.50;99.90
8858;DHT22;4465;50.904;4.696;2023-02-26T05:03:46;-0.50;99.90
8858;DHT22;4465;50.904;4.696;2023-02-26T05:06:12;-0.50;99.90
8858;DHT22;4465;50.904;4.696;2023-02-26T05:08:37;-0.50;99.90
8858;DHT22;4465;50.904;4.696;2023-02-26T05:11:06;-0.50;99.90
8858;DHT22;4465;50.904;4.696;2023-02-26T05:13:34;-0.60;99.90
8858;DHT22;4465;50.904;4.696;2023-02-26T05:16:00;-0.60;99.90
8858;DHT22;4465;50.904;4.696;2023-02-26T05:18:26;-0.60;99.90
8858;DHT22;4465;50.904;4.696;2023-02-26T05:20:55;-0.60;99.90
8858;DHT22;4465;50.904;4.696;2023-02-26T05:23:21;-0.60;99.90
8858;DHT22;4465;50.904;4.696;2023-02-26T05:25:47;-0.50;99.90
8858;DHT22;4465;50.904;4.696;2023-02-26T05:28:13;-0.60;99.90
8858;DHT22;4465;50.904;4.696;2023-02-26T05:30:41;-0.60;99.90
8858;DHT22;4465;50.904;4.696;2023-02-26T05:33:07;-0.50;99.90
8858;DHT22;4465;50.904;4.696;2023-02-26T05:35:35;-0.60;99.90
8858;DHT22;4465;50.904;4.696;2023-02-26T05:38:00;-0.60;99.90
8858;DHT22;4465;50.904;4.696;2023-02-26T05:40:26;-0.60;99.90
8858;DHT22;4465;50.904;4.696;2023-02-26T05:42:52;-0.60;99.90
8858;DHT22;4465;50.904;4.696;2023-02-26T05:45:20;-0.60;99.90
8858;DHT22;4465;50.904;4.696;2023-02-26T05:47:46;-0.40;99.90
8858;DHT22;4465;50.904;4.696;2023-02-26T05:50:12;-0.60;99.90
8858;DHT22;4465;50.904;4.696;2023-02-26T05:52:37;-0.60;99.90
8858;DHT22;4465;50.904;4.696;2023-02-26T05:55:03;-0.60;99.90
8858;DHT22;4465;50.904;4.696;2023-02-26T05:57:29;-0.60;99.90
8858;DHT22;4465;50.904;4.696;2023-02-26T05:59:55;-0.60;99.90
8858;DHT22;4465;50.904;4.696;2023-02-26T06:02:21;-0.60;99.90
8858;DHT22;4465;50.904;4.696;2023-02-26T06:04:47;-0.60;99.90
8858;DHT22;4465;50.904;4.696;2023-02-26T06:07:13;-0.60;99.90
8858;DHT22;4465;50.904;4.696;2023-02-26T06:09:38;-0.60;99.90
8858;DHT22;4465;50.904;4.696;2023-02-26T06:12:04;-0.60;99.90
8858;DHT22;4465;50.904;4.696;2023-02-26T06:14:35;-0.70;99.90
8858;DHT22;4465;50.904;4.696;2023-02-26T06:17:01;-0.70;99.90
8858;DHT22;4465;50.904;4.696;2023-02-26T06:19:27;-0.60;99.90
8858;DHT22;4465;50.904;4.696;2023-02-26T06:21:53;-0.70;99.90
8858;DHT22;4465;50.904;4.696;2023-02-26T06:24:21;-0.70;99.90
8858;DHT22;4465;50.904;4.696;2023-02-26T06:26:47;-0.70;99.90
8858;DHT22;4465;50.904;4.696;2023-02-26T06:29:13;-0.70;99.90
8858;DHT22;4465;50.904;4.696;2023-02-26T06:31:39;-0.60;99.90
8858;DHT22;4465;50.904;4.696;2023-02-26T06:34:07;-0.70;99.90
8858;DHT22;4465;50.904;4.696;2023-02-26T06:36:33;-0.70;99.90
8858;DHT22;4465;50.904;4.696;2023-02-26T06:39:01;-0.80;99.90
8858;DHT22;4465;50.904;4.696;2023-02-26T06:41:29;-0.80;99.90
8858;DHT22;4465;50.904;4.696;2023-02-26T06:43:55;-0.80;99.90
8858;DHT22;4465;50.904;4.696;2023-02-26T06:46:21;-0.70;99.90
8858;DHT22;4465;50.904;4.696;2023-02-26T06:48:46;-0.80;99.90
8858;DHT22;4465;50.904;4.696;2023-02-26T06:51:12;-0.80;99.90
8858;DHT22;4465;50.904;4.696;2023-02-26T06:53:38;-0.80;99.90
8858;DHT22;4465;50.904;4.696;2023-02-26T06:56:06;-0.80;99.90
8858;DHT22;4465;50.904;4.696;2023-02-26T06:58:32;-0.80;99.90
8858;DHT22;4465;50.904;4.696;2023-02-26T07:00:58;-0.80;99.90
8858;DHT22;4465;50.904;4.696;2023-02-26T07:03:24;-0.70;99.90
8858;DHT22;4465;50.904;4.696;2023-02-26T07:05:50;-0.80;99.90
8858;DHT22;4465;50.904;4.696;2023-02-26T07:08:15;-0.80;99.90
8858;DHT22;4465;50.904;4.696;2023-02-26T07:10:41;-0.70;99.90
8858;DHT22;4465;50.904;4.696;2023-02-26T07:13:07;-0.70;99.90
8858;DHT22;4465;50.904;4.696;2023-02-26T07:15:33;-0.70;99.90
8858;DHT22;4465;50.904;4.696;2023-02-26T07:17:59;-0.70;99.90
8858;DHT22;4465;50.904;4.696;2023-02-26T07:20:30;-0.70;99.90
8858;DHT22;4465;50.904;4.696;2023-02-26T07:22:55;-0.70;99.90
8858;DHT22;4465;50.904;4.696;2023-02-26T07:25:23;-0.70;99.90
8858;DHT22;4465;50.904;4.696;2023-02-26T07:27:50;-0.60;99.90
8858;DHT22;4465;50.904;4.696;2023-02-26T07:30:16;-0.60;99.90
8858;DHT22;4465;50.904;4.696;2023-02-26T07:32:41;-0.60;99.90
8858;DHT22;4465;50.904;4.696;2023-02-26T07:35:10;-0.60;99.90
8858;DHT22;4465;50.904;4.696;2023-02-26T07:37:35;-0.50;99.90
8858;DHT22;4465;50.904;4.696;2023-02-26T07:40:01;-0.40;99.90
8858;DHT22;4465;50.904;4.696;2023-02-26T07:42:28;-0.40;99.90
8858;DHT22;4465;50.904;4.696;2023-02-26T07:44:53;-0.40;99.90
8858;DHT22;4465;50.904;4.696;2023-02-26T07:47:19;-0.30;99.90
8858;DHT22;4465;50.904;4.696;2023-02-26T07:49:47;-0.30;99.90
8858;DHT22;4465;50.904;4.696;2023-02-26T07:52:18;-0.20;99.90
8858;DHT22;4465;50.904;4.696;2023-02-26T07:54:46;-0.10;99.90
8858;DHT22;4465;50.904;4.696;2023-02-26T07:57:12;0.00;99.90
8858;DHT22;4465;50.904;4.696;2023-02-26T07:59:40;0.00;99.90
8858;DHT22;4465;50.904;4.696;2023-02-26T08:02:09;0.10;99.90
8858;DHT22;4465;50.904;4.696;2023-02-26T08:04:40;0.30;99.90
8858;DHT22;4465;50.904;4.696;2023-02-26T08:07:09;0.50;99.90
8858;DHT22;4465;50.904;4.696;2023-02-26T08:09:37;0.80;99.90
8858;DHT22;4465;50.904;4.696;2023-02-26T08:12:02;1.10;99.90
8858;DHT22;4465;50.904;4.696;2023-02-26T08:14:28;1.40;99.90
8858;DHT22;4465;50.904;4.696;2023-02-26T08:16:54;1.70;99.90
8858;DHT22;4465;50.904;4.696;2023-02-26T08:19:20;1.90;99.90
8858;DHT22;4465;50.904;4.696;2023-02-26T08:21:46;2.20;99.90
8858;DHT22;4465;50.904;4.696;2023-02-26T08:24:11;2.40;99.90
8858;DHT22;4465;50.904;4.696;2023-02-26T08:26:40;2.70;99.90
8858;DHT22;4465;50.904;4.696;2023-02-26T08:29:06;2.90;99.90
8858;DHT22;4465;50.904;4.696;2023-02-26T08:31:31;3.10;99.90
8858;DHT22;4465;50.904;4.696;2023-02-26T08:34:02;3.20;99.90
8858;DHT22;4465;50.904;4.696;2023-02-26T08:36:29;3.40;99.90
8858;DHT22;4465;50.904;4.696;2023-02-26T08:38:54;3.50;99.90
8858;DHT22;4465;50.904;4.696;2023-02-26T08:41:23;3.80;99.90
8858;DHT22;4465;50.904;4.696;2023-02-26T08:43:49;3.90;99.90
8858;DHT22;4465;50.904;4.696;2023-02-26T08:46:14;4.10;99.90
8858;DHT22;4465;50.904;4.696;2023-02-26T08:48:42;4.30;99.90
8858;DHT22;4465;50.904;4.696;2023-02-26T08:51:08;4.40;99.90
8858;DHT22;4465;50.904;4.696;2023-02-26T08:53:34;4.50;99.90
8858;DHT22;4465;50.904;4.696;2023-02-26T08:56:00;4.70;99.90
8858;DHT22;4465;50.904;4.696;2023-02-26T08:58:26;4.70;99.90
8858;DHT22;4465;50.904;4.696;2023-02-26T09:00:54;4.70;99.90
8858;DHT22;4465;50.904;4.696;2023-02-26T09:03:20;4.70;99.90
8858;DHT22;4465;50.904;4.696;2023-02-26T09:05:45;4.60;99.90
8858;DHT22;4465;50.904;4.696;2023-02-26T09:08:11;4.50;99.90
8858;DHT22;4465;50.904;4.696;2023-02-26T09:10:39;4.40;99.90
8858;DHT22;4465;50.904;4.696;2023-02-26T09:13:05;4.40;99.90
8858;DHT22;4465;50.904;4.696;2023-02-26T09:15:31;4.20;99.90
8858;DHT22;4465;50.904;4.696;2023-02-26T09:17:57;4.20;99.90
8858;DHT22;4465;50.904;4.696;2023-02-26T09:20:24;4.10;99.90
8858;DHT22;4465;50.904;4.696;2023-02-26T09:22:52;4.00;99.90
8858;DHT22;4465;50.904;4.696;2023-02-26T09:25:18;4.00;99.90
8858;DHT22;4465;50.904;4.696;2023-02-26T09:27:44;4.10;99.90
8858;DHT22;4465;50.904;4.696;2023-02-26T09:30:10;4.20;99.90
8858;DHT22;4465;50.904;4.696;2023-02-26T09:32:36;4.30;99.90
8858;DHT22;4465;50.904;4.696;2023-02-26T09:35:04;4.40;99.90
8858;DHT22;4465;50.904;4.696;2023-02-26T09:37:33;4.50;99.90
8858;DHT22;4465;50.904;4.696;2023-02-26T09:39:58;4.50;99.90
8858;DHT22;4465;50.904;4.696;2023-02-26T09:42:43;4.50;99.90
8858;DHT22;4465;50.904;4.696;2023-02-26T09:45:29;4.60;99.90
8858;DHT22;4465;50.904;4.696;2023-02-26T09:47:56;4.60;99.90
8858;DHT22;4465;50.904;4.696;2023-02-26T09:53:02;4.70;99.90
8858;DHT22;4465;50.904;4.696;2023-02-26T09:55:30;4.70;99.90
8858;DHT22;4465;50.904;4.696;2023-02-26T09:57:59;4.90;99.90
8858;DHT22;4465;50.904;4.696;2023-02-26T10:00:35;4.90;99.90
8858;DHT22;4465;50.904;4.696;2023-02-26T10:03:05;4.90;99.90
8858;DHT22;4465;50.904;4.696;2023-02-26T10:05:47;5.00;99.90
8858;DHT22;4465;50.904;4.696;2023-02-26T10:08:16;5.10;99.90
8858;DHT22;4465;50.904;4.696;2023-02-26T10:11:09;5.20;99.90
8858;DHT22;4465;50.904;4.696;2023-02-26T10:13:41;5.20;99.90
8858;DHT22;4465;50.904;4.696;2023-02-26T10:16:10;5.20;99.90
8858;DHT22;4465;50.904;4.696;2023-02-26T10:18:39;5.30;99.90
8858;DHT22;4465;50.904;4.696;2023-02-26T10:21:18;5.40;99.90
8858;DHT22;4465;50.904;4.696;2023-02-26T10:23:49;5.50;99.90
8858;DHT22;4465;50.904;4.696;2023-02-26T10:31:36;5.70;99.90
8858;DHT22;4465;50.904;4.696;2023-02-26T10:36:34;6.00;99.90
8858;DHT22;4465;50.904;4.696;2023-02-26T10:42:01;6.30;99.90
8858;DHT22;4465;50.904;4.696;2023-02-26T10:47:45;6.70;99.90
8858;DHT22;4465;50.904;4.696;2023-02-26T10:50:17;6.80;99.90
8858;DHT22;4465;50.904;4.696;2023-02-26T10:52:44;6.90;99.90
8858;DHT22;4465;50.904;4.696;2023-02-26T10:57:43;6.90;99.90
8858;DHT22;4465;50.904;4.696;2023-02-26T11:00:18;6.90;99.90
8858;DHT22;4465;50.904;4.696;2023-02-26T11:02:45;7.00;99.90
8858;DHT22;4465;50.904;4.696;2023-02-26T11:05:26;7.10;99.90
8858;DHT22;4465;50.904;4.696;2023-02-26T11:07:54;7.20;99.90
8858;DHT22;4465;50.904;4.696;2023-02-26T11:10:24;7.20;99.90
8858;DHT22;4465;50.904;4.696;2023-02-26T11:12:51;7.20;99.90
8858;DHT22;4465;50.904;4.696;2023-02-26T11:15:20;7.20;99.90
8858;DHT22;4465;50.904;4.696;2023-02-26T11:17:47;7.30;99.90
8858;DHT22;4465;50.904;4.696;2023-02-26T11:20:25;7.30;99.90
8858;DHT22;4465;50.904;4.696;2023-02-26T11:22:53;7.20;99.90
8858;DHT22;4465;50.904;4.696;2023-02-26T11:25:22;7.10;99.90
8858;DHT22;4465;50.904;4.696;2023-02-26T11:27:49;7.10;99.90
8858;DHT22;4465;50.904;4.696;2023-02-26T11:30:18;7.00;99.90
8858;DHT22;4465;50.904;4.696;2023-02-26T11:32:45;7.10;99.90
8858;DHT22;4465;50.904;4.696;2023-02-26T11:35:14;7.10;99.90
8858;DHT22;4465;50.904;4.696;2023-02-26T11:37:41;7.20;99.90
8858;DHT22;4465;50.904;4.696;2023-02-26T11:40:16;7.40;99.90
8858;DHT22;4465;50.904;4.696;2023-02-26T11:42:47;7.40;99.90
8858;DHT22;4465;50.904;4.696;2023-02-26T11:45:15;7.20;99.90
8858;DHT22;4465;50.904;4.696;2023-02-26T11:47:41;7.00;99.90
8858;DHT22;4465;50.904;4.696;2023-02-26T11:50:16;6.70;99.90
8858;DHT22;4465;50.904;4.696;2023-02-26T11:52:44;6.50;99.90
8858;DHT22;4465;50.904;4.696;2023-02-26T11:57:51;6.00;99.90
8858;DHT22;4465;50.904;4.696;2023-02-26T12:00:23;5.80;99.90
8858;DHT22;4465;50.904;4.696;2023-02-26T12:02:49;5.70;99.90
8858;DHT22;4465;50.904;4.696;2023-02-26T12:05:15;5.80;99.90
8858;DHT22;4465;50.904;4.696;2023-02-26T12:07:41;5.70;99.90
8858;DHT22;4465;50.904;4.696;2023-02-26T12:10:20;5.60;99.90
8858;DHT22;4465;50.904;4.696;2023-02-26T12:15:31;5.50;99.90
8858;DHT22;4465;50.904;4.696;2023-02-26T12:18:08;5.60;99.90
8858;DHT22;4465;50.904;4.696;2023-02-26T12:20:45;5.80;99.90
8858;DHT22;4465;50.904;4.696;2023-02-26T12:23:20;6.10;99.90
8858;DHT22;4465;50.904;4.696;2023-02-26T12:26:52;6.30;99.90
8858;DHT22;4465;50.904;4.696;2023-02-26T12:32:09;7.10;99.90
8858;DHT22;4465;50.904;4.696;2023-02-26T12:39:34;8.70;99.90
8858;DHT22;4465;50.904;4.696;2023-02-26T12:55:22;9.10;99.90
8858;DHT22;4465;50.904;4.696;2023-02-26T12:58:14;8.90;99.90
8858;DHT22;4465;50.904;4.696;2023-02-26T13:11:22;8.80;99.90
8858;DHT22;4465;50.904;4.696;2023-02-26T13:21:38;9.10;99.90
8858;DHT22;4465;50.904;4.696;2023-02-26T13:26:35;9.20;99.90
8858;DHT22;4465;50.904;4.696;2023-02-26T13:29:09;9.30;99.90
8858;DHT22;4465;50.904;4.696;2023-02-26T13:31:42;9.50;99.90
8858;DHT22;4465;50.904;4.696;2023-02-26T13:34:11;9.80;99.90
8858;DHT22;4465;50.904;4.696;2023-02-26T13:36:37;9.90;99.90
8858;DHT22;4465;50.904;4.696;2023-02-26T13:49:14;9.00;99.90
8858;DHT22;4465;50.904;4.696;2023-02-26T13:51:43;8.80;99.90
8858;DHT22;4465;50.904;4.696;2023-02-26T13:56:44;8.50;99.90
8858;DHT22;4465;50.904;4.696;2023-02-26T14:01:53;8.10;99.90
8858;DHT22;4465;50.904;4.696;2023-02-26T14:06:50;8.10;99.90
8858;DHT22;4465;50.904;4.696;2023-02-26T14:14:28;8.00;99.90
8858;DHT22;4465;50.904;4.696;2023-02-26T14:21:53;8.00;99.90
8858;DHT22;4465;50.904;4.696;2023-02-26T14:24:29;8.20;99.90
8858;DHT22;4465;50.904;4.696;2023-02-26T14:30:31;8.60;99.90
8858;DHT22;4465;50.904;4.696;2023-02-26T14:32:33;8.70;99.90
8858;DHT22;4465;50.904;4.696;2023-02-26T14:35:05;8.80;99.90
8858;DHT22;4465;50.904;4.696;2023-02-26T14:37:34;8.80;99.90
8858;DHT22;4465;50.904;4.696;2023-02-26T14:45:08;8.30;99.90
8858;DHT22;4465;50.904;4.696;2023-02-26T14:47:36;8.10;99.90
8858;DHT22;4465;50.904;4.696;2023-02-26T14:50:02;7.90;99.90
8858;DHT22;4465;50.904;4.696;2023-02-26T14:52:36;7.70;99.90
8858;DHT22;4465;50.904;4.696;2023-02-26T15:01:12;7.20;99.90
8858;DHT22;4465;50.904;4.696;2023-02-26T15:24:09;5.90;99.90
8858;DHT22;4465;50.904;4.696;2023-02-26T15:26:44;5.80;99.90
8858;DHT22;4465;50.904;4.696;2023-02-26T15:29:10;5.80;99.90
8858;DHT22;4465;50.904;4.696;2023-02-26T15:31:41;5.70;99.90
8858;DHT22;4465;50.904;4.696;2023-02-26T15:34:11;5.70;99.90
8858;DHT22;4465;50.904;4.696;2023-02-26T15:36:43;5.60;99.90
8858;DHT22;4465;50.904;4.696;2023-02-26T15:39:09;5.50;99.90
8858;DHT22;4465;50.904;4.696;2023-02-26T15:41:36;5.50;99.90
8858;DHT22;4465;50.904;4.696;2023-02-26T15:44:07;5.40;99.90
8858;DHT22;4465;50.904;4.696;2023-02-26T15:46:38;5.40;99.90
8858;DHT22;4465;50.904;4.696;2023-02-26T15:49:07;5.40;99.90
8858;DHT22;4465;50.904;4.696;2023-02-26T15:51:33;5.30;99.90
8858;DHT22;4465;50.904;4.696;2023-02-26T15:54:02;5.30;99.90
8858;DHT22;4465;50.904;4.696;2023-02-26T15:56:28;5.20;99.90
8858;DHT22;4465;50.904;4.696;2023-02-26T15:58:57;5.20;99.90
8858;DHT22;4465;50.904;4.696;2023-02-26T16:01:24;5.20;99.90
8858;DHT22;4465;50.904;4.696;2023-02-26T16:03:51;5.20;99.90
8858;DHT22;4465;50.904;4.696;2023-02-26T16:06:19;5.10;99.90
8858;DHT22;4465;50.904;4.696;2023-02-26T16:08:45;5.10;99.90
8858;DHT22;4465;50.904;4.696;2023-02-26T16:11:13;5.10;99.90
8858;DHT22;4465;50.904;4.696;2023-02-26T16:13:42;5.10;99.90
8858;DHT22;4465;50.904;4.696;2023-02-26T16:16:17;5.00;99.90
8858;DHT22;4465;50.904;4.696;2023-02-26T16:18:43;5.00;99.90
8858;DHT22;4465;50.904;4.696;2023-02-26T16:21:16;5.00;99.90
8858;DHT22;4465;50.904;4.696;2023-02-26T16:23:45;4.90;99.90
8858;DHT22;4465;50.904;4.696;2023-02-26T16:26:14;4.90;99.90
8858;DHT22;4465;50.904;4.696;2023-02-26T16:28:42;4.90;99.90
8858;DHT22;4465;50.904;4.696;2023-02-26T16:31:18;4.90;99.90
8858;DHT22;4465;50.904;4.696;2023-02-26T16:36:37;4.80;99.90
8858;DHT22;4465;50.904;4.696;2023-02-26T16:41:32;4.70;99.90
8858;DHT22;4465;50.904;4.696;2023-02-26T16:44:00;4.70;99.90
8858;DHT22;4465;50.904;4.696;2023-02-26T16:46:33;4.70;99.90
8858;DHT22;4465;50.904;4.696;2023-02-26T16:51:47;4.60;99.90
8858;DHT22;4465;50.904;4.696;2023-02-26T16:54:26;4.60;99.90
8858;DHT22;4465;50.904;4.696;2023-02-26T16:57:11;4.60;99.90
8858;DHT22;4465;50.904;4.696;2023-02-26T16:59:40;4.50;99.90
8858;DHT22;4465;50.904;4.696;2023-02-26T17:02:12;4.50;99.90
8858;DHT22;4465;50.904;4.696;2023-02-26T17:04:39;4.50;99.90
8858;DHT22;4465;50.904;4.696;2023-02-26T17:07:14;4.50;99.90
8858;DHT22;4465;50.904;4.696;2023-02-26T17:09:43;4.40;99.90
8858;DHT22;4465;50.904;4.696;2023-02-26T17:12:52;4.40;99.90
8858;DHT22;4465;50.904;4.696;2023-02-26T17:14:59;4.30;99.90
8858;DHT22;4465;50.904;4.696;2023-02-26T17:17:25;4.30;99.90
8858;DHT22;4465;50.904;4.696;2023-02-26T17:19:54;4.30;99.90
8858;DHT22;4465;50.904;4.696;2023-02-26T17:22:26;4.20;99.90
8858;DHT22;4465;50.904;4.696;2023-02-26T17:24:52;4.20;99.90
8858;DHT22;4465;50.904;4.696;2023-02-26T17:27:26;4.20;99.90
8858;DHT22;4465;50.904;4.696;2023-02-26T17:29:52;4.10;99.90
8858;DHT22;4465;50.904;4.696;2023-02-26T17:32:21;4.10;99.90
8858;DHT22;4465;50.904;4.696;2023-02-26T17:34:48;4.00;99.90
8858;DHT22;4465;50.904;4.696;2023-02-26T17:37:14;3.90;99.90
8858;DHT22;4465;50.904;4.696;2023-02-26T17:39:40;3.90;99.90
8858;DHT22;4465;50.904;4.696;2023-02-26T17:42:12;3.90;99.90
8858;DHT22;4465;50.904;4.696;2023-02-26T17:44:38;3.80;99.90
8858;DHT22;4465;50.904;4.696;2023-02-26T17:47:08;3.70;99.90
8858;DHT22;4465;50.904;4.696;2023-02-26T17:49:34;3.70;99.90
8858;DHT22;4465;50.904;4.696;2023-02-26T17:52:02;3.60;99.90
8858;DHT22;4465;50.904;4.696;2023-02-26T17:54:28;3.60;99.90
8858;DHT22;4465;50.904;4.696;2023-02-26T17:56:54;3.50;99.90
8858;DHT22;4465;50.904;4.696;2023-02-26T17:59:19;3.50;99.90
8858;DHT22;4465;50.904;4.696;2023-02-26T18:01:45;3.50;99.90
8858;DHT22;4465;50.904;4.696;2023-02-26T18:04:13;3.40;99.90
8858;DHT22;4465;50.904;4.696;2023-02-26T18:06:41;3.30;99.90
8858;DHT22;4465;50.904;4.696;2023-02-26T18:09:09;3.30;99.90
8858;DHT22;4465;50.904;4.696;2023-02-26T18:11:35;3.30;99.90
8858;DHT22;4465;50.904;4.696;2023-02-26T18:14:01;3.30;99.90
8858;DHT22;4465;50.904;4.696;2023-02-26T18:16:28;3.20;99.90
8858;DHT22;4465;50.904;4.696;2023-02-26T18:18:56;3.20;99.90
8858;DHT22;4465;50.904;4.696;2023-02-26T18:21:23;3.10;99.90
8858;DHT22;4465;50.904;4.696;2023-02-26T18:23:53;3.10;99.90
8858;DHT22;4465;50.904;4.696;2023-02-26T18:26:26;3.10;99.90
8858;DHT22;4465;50.904;4.696;2023-02-26T18:28:56;3.00;99.90
8858;DHT22;4465;50.904;4.696;2023-02-26T18:31:22;2.90;99.90
8858;DHT22;4465;50.904;4.696;2023-02-26T18:33:49;2.90;99.90
8858;DHT22;4465;50.904;4.696;2023-02-26T18:36:18;2.90;99.90
8858;DHT22;4465;50.904;4.696;2023-02-26T18:38:46;2.80;99.90
8858;DHT22;4465;50.904;4.696;2023-02-26T18:41:12;2.80;99.90
8858;DHT22;4465;50.904;4.696;2023-02-26T18:43:37;2.70;99.90
8858;DHT22;4465;50.904;4.696;2023-02-26T18:46:07;2.60;99.90
8858;DHT22;4465;50.904;4.696;2023-02-26T18:48:34;2.60;99.90
8858;DHT22;4465;50.904;4.696;2023-02-26T18:50:59;2.60;99.90
8858;DHT22;4465;50.904;4.696;2023-02-26T18:53:25;2.50;99.90
8858;DHT22;4465;50.904;4.696;2023-02-26T18:55:52;2.50;99.90
8858;DHT22;4465;50.904;4.696;2023-02-26T18:58:21;2.40;99.90
8858;DHT22;4465;50.904;4.696;2023-02-26T19:00:47;2.40;99.90
8858;DHT22;4465;50.904;4.696;2023-02-26T19:03:13;2.30;99.90
8858;DHT22;4465;50.904;4.696;2023-02-26T19:05:41;2.30;99.90
8858;DHT22;4465;50.904;4.696;2023-02-26T19:08:07;2.30;99.90
8858;DHT22;4465;50.904;4.696;2023-02-26T19:10:35;2.10;99.90
8858;DHT22;4465;50.904;4.696;2023-02-26T19:13:02;2.10;99.90
8858;DHT22;4465;50.904;4.696;2023-02-26T19:15:29;2.10;99.90
8858;DHT22;4465;50.904;4.696;2023-02-26T19:17:57;2.00;99.90
8858;DHT22;4465;50.904;4.696;2023-02-26T19:20:25;2.00;99.90
8858;DHT22;4465;50.904;4.696;2023-02-26T19:22:53;1.90;99.90
8858;DHT22;4465;50.904;4.696;2023-02-26T19:25:21;1.90;99.90
8858;DHT22;4465;50.904;4.696;2023-02-26T19:27:49;1.90;99.90
8858;DHT22;4465;50.904;4.696;2023-02-26T19:30:18;1.80;99.90
8858;DHT22;4465;50.904;4.696;2023-02-26T19:32:44;1.70;99.90
8858;DHT22;4465;50.904;4.696;2023-02-26T19:35:09;1.70;99.90